Time;durP1;ratioP1;P1;durP2;ratioP2;P2;SDS_P1;SDS_P2;PMS_P1;PMS_P2;Temp;Humidity;BMP_temperature;BMP_pressure;BME280_temperature;BME280_humidity;BME280_pressure;Samples;Min_cycle;Max_cycle;Signal;HPM_P1;HPM_P2
2023/07/29 00:01:13;;;;;;;9.13;6.78;;;;;;;;;;5063678;28;20050;-90
2023/07/29 00:03:40;;;;;;;10.98;6.97;;;;;;;;;;5059636;28;20041;-89
2023/07/29 00:06:06;;;;;;;8.50;6.97;;;;;;;;;;5046494;28;20092;-89
2023/07/29 00:08:33;;;;;;;10.93;7.30;;;;;;;;;;5063796;28;20048;-89
2023/07/29 00:10:59;;;;;;;12.05;7.50;;;;;;;;;;5063958;28;20051;-89
2023/07/29 00:13:25;;;;;;;10.25;7.50;;;;;;;;;;5064240;28;20044;-89
2023/07/29 00:15:54;;;;;;;9.27;7.45;;;;;;;;;;5080723;28;20040;-88
2023/07/29 00:18:20;;;;;;;9.60;7.45;;;;;;;;;;5064566;28;20048;-89
2023/07/29 00:20:46;;;;;;;11.00;7.72;;;;;;;;;;5063851;28;20035;-88
2023/07/29 00:23:12;;;;;;;11.15;7.32;;;;;;;;;;5064268;28;20080;-88
2023/07/29 00:25:38;;;;;;;10.30;7.90;;;;;;;;;;5080292;28;20518;-89
2023/07/29 00:28:04;;;;;;;10.27;7.18;;;;;;;;;;5064040;28;20051;-89
2023/07/29 00:30:30;;;;;;;10.77;7.72;;;;;;;;;;5063594;28;20047;-89
2023/07/29 00:32:57;;;;;;;8.68;6.97;;;;;;;;;;5064167;28;20039;-89
2023/07/29 00:35:23;;;;;;;8.75;7.40;;;;;;;;;;5062162;28;20127;-88
2023/07/29 00:37:49;;;;;;;10.52;8.10;;;;;;;;;;5062873;28;20089;-89
2023/07/29 00:40:16;;;;;;;10.20;7.53;;;;;;;;;;5062970;28;20044;-89
2023/07/29 00:42:43;;;;;;;10.88;8.10;;;;;;;;;;5063313;28;20036;-88
2023/07/29 00:45:09;;;;;;;8.77;7.18;;;;;;;;;;5063011;28;20376;-89
2023/07/29 00:47:35;;;;;;;10.35;8.27;;;;;;;;;;5062793;28;20055;-90
2023/07/29 00:50:02;;;;;;;9.27;8.00;;;;;;;;;;5062733;28;20040;-90
2023/07/29 00:52:28;;;;;;;9.27;7.60;;;;;;;;;;5062773;28;20055;-90
2023/07/29 00:54:55;;;;;;;9.95;8.65;;;;;;;;;;5078356;28;20582;-90
2023/07/29 00:57:22;;;;;;;11.50;7.85;;;;;;;;;;5080300;28;20044;-89
2023/07/29 00:59:48;;;;;;;10.98;8.25;;;;;;;;;;5077688;28;20144;-88
2023/07/29 01:02:14;;;;;;;9.10;8.00;;;;;;;;;;5062940;28;20036;-89
2023/07/29 01:04:42;;;;;;;11.73;8.75;;;;;;;;;;5079574;28;20154;-88
2023/07/29 01:07:08;;;;;;;14.85;8.38;;;;;;;;;;5062922;28;20451;-88
2023/07/29 01:09:46;;;;;;;10.10;8.07;;;;;;;;;;5062372;28;20433;-89
2023/07/29 01:12:19;;;;;;;11.18;8.73;;;;;;;;;;5081198;28;20048;-89
2023/07/29 01:15:21;;;;;;;13.02;8.48;;;;;;;;;;5093857;28;20481;-89
2023/07/29 01:17:48;;;;;;;10.30;8.68;;;;;;;;;;4963655;28;20511;-89
2023/07/29 01:20:20;;;;;;;9.27;8.10;;;;;;;;;;5046251;28;20059;-88
2023/07/29 01:22:49;;;;;;;10.20;8.15;;;;;;;;;;5062638;28;20035;-88
2023/07/29 01:25:15;;;;;;;12.07;8.60;;;;;;;;;;5079283;28;20066;-89
2023/07/29 01:27:42;;;;;;;10.77;8.52;;;;;;;;;;5091137;28;20132;-88
2023/07/29 01:30:09;;;;;;;10.40;8.32;;;;;;;;;;5099052;28;20036;-87
2023/07/29 01:32:38;;;;;;;11.98;8.18;;;;;;;;;;5099323;28;20078;-89
2023/07/29 01:35:04;;;;;;;9.00;8.10;;;;;;;;;;5081866;28;20044;-88
2023/07/29 01:37:33;;;;;;;10.35;8.55;;;;;;;;;;5081021;28;20043;-88
2023/07/29 01:40:00;;;;;;;9.43;7.90;;;;;;;;;;5078025;28;20040;-88
2023/07/29 01:42:26;;;;;;;10.85;8.48;;;;;;;;;;5078639;28;20097;-89
2023/07/29 01:44:53;;;;;;;13.80;8.77;;;;;;;;;;5060802;28;20489;-88
2023/07/29 01:47:22;;;;;;;14.52;8.73;;;;;;;;;;5078163;28;20048;-89
2023/07/29 01:49:48;;;;;;;11.80;8.65;;;;;;;;;;5061211;28;20048;-88
2023/07/29 01:52:14;;;;;;;13.02;8.82;;;;;;;;;;5062568;28;20051;-88
2023/07/29 01:54:40;;;;;;;15.18;8.77;;;;;;;;;;5061531;28;20197;-87
2023/07/29 01:57:06;;;;;;;9.93;8.05;;;;;;;;;;5061829;28;20048;-88
2023/07/29 01:59:33;;;;;;;12.15;9.10;;;;;;;;;;5077269;28;20066;-87
2023/07/29 02:01:59;;;;;;;10.98;8.90;;;;;;;;;;5060446;28;20552;-88
2023/07/29 02:04:25;;;;;;;10.48;8.55;;;;;;;;;;5058629;28;20435;-88
2023/07/29 02:06:51;;;;;;;13.90;9.05;;;;;;;;;;5061566;28;20066;-88
2023/07/29 02:09:17;;;;;;;13.32;9.18;;;;;;;;;;5069550;28;20055;-88
2023/07/29 02:11:43;;;;;;;10.85;8.77;;;;;;;;;;5061688;28;20127;-88
2023/07/29 02:14:14;;;;;;;10.27;8.60;;;;;;;;;;5077681;28;20469;-89
2023/07/29 02:16:41;;;;;;;13.25;9.30;;;;;;;;;;5060803;28;20067;-90
2023/07/29 02:19:07;;;;;;;12.73;9.50;;;;;;;;;;5061984;28;20377;-89
2023/07/29 02:21:33;;;;;;;12.20;8.88;;;;;;;;;;5060159;28;20040;-88
2023/07/29 02:23:59;;;;;;;12.43;9.82;;;;;;;;;;5061267;28;20044;-88
2023/07/29 02:26:29;;;;;;;13.70;9.27;;;;;;;;;;5061588;28;20265;-89
2023/07/29 02:28:55;;;;;;;12.57;9.30;;;;;;;;;;5060612;28;20500;-88
2023/07/29 02:31:22;;;;;;;14.13;9.98;;;;;;;;;;5061463;28;20036;-89
2023/07/29 02:33:49;;;;;;;10.65;9.32;;;;;;;;;;5063314;28;20142;-88
2023/07/29 02:36:15;;;;;;;11.00;9.38;;;;;;;;;;5075029;28;20058;-89
2023/07/29 02:38:41;;;;;;;11.98;9.82;;;;;;;;;;5063980;28;20044;-88
2023/07/29 02:41:09;;;;;;;11.75;9.65;;;;;;;;;;5077610;28;20058;-89
2023/07/29 02:43:35;;;;;;;15.43;9.98;;;;;;;;;;5061965;28;20063;-88
2023/07/29 02:46:02;;;;;;;12.30;9.63;;;;;;;;;;5060748;28;20056;-89
2023/07/29 02:48:29;;;;;;;13.85;10.00;;;;;;;;;;5078588;28;20093;-89
2023/07/29 02:50:55;;;;;;;12.13;9.68;;;;;;;;;;5063435;28;20044;-90
2023/07/29 02:53:22;;;;;;;13.13;10.52;;;;;;;;;;5098966;28;20040;-88
2023/07/29 02:55:48;;;;;;;11.38;9.57;;;;;;;;;;5082528;28;20031;-88
2023/07/29 02:58:14;;;;;;;12.93;10.00;;;;;;;;;;5098104;28;20047;-88
2023/07/29 03:00:41;;;;;;;13.38;10.52;;;;;;;;;;5069647;28;20097;-88
2023/07/29 03:03:11;;;;;;;13.05;10.00;;;;;;;;;;5078321;28;20054;-89
2023/07/29 03:05:38;;;;;;;14.00;9.77;;;;;;;;;;5052456;28;20040;-89
2023/07/29 03:08:04;;;;;;;13.20;10.07;;;;;;;;;;5060365;28;20093;-89
2023/07/29 03:10:30;;;;;;;13.82;10.55;;;;;;;;;;5053892;28;20138;-87
2023/07/29 03:12:56;;;;;;;14.27;10.20;;;;;;;;;;5113938;28;20127;-88
2023/07/29 03:15:26;;;;;;;13.57;10.18;;;;;;;;;;5086162;28;20051;-89
2023/07/29 03:17:52;;;;;;;13.63;10.10;;;;;;;;;;5077671;28;20036;-89
2023/07/29 03:20:18;;;;;;;13.57;10.25;;;;;;;;;;5061186;28;20378;-89
2023/07/29 03:22:45;;;;;;;14.68;9.98;;;;;;;;;;5060728;28;20044;-88
2023/07/29 03:25:11;;;;;;;16.15;10.80;;;;;;;;;;5060168;28;20518;-88
2023/07/29 03:27:37;;;;;;;15.35;9.68;;;;;;;;;;5073118;28;20391;-88
2023/07/29 03:30:07;;;;;;;12.68;9.98;;;;;;;;;;5080500;28;20373;-87
2023/07/29 03:32:33;;;;;;;15.82;10.10;;;;;;;;;;5080710;28;20044;-88
2023/07/29 03:34:59;;;;;;;14.43;9.55;;;;;;;;;;5097619;28;20044;-88
2023/07/29 03:37:25;;;;;;;13.60;9.40;;;;;;;;;;5098200;28;20492;-88
2023/07/29 03:39:52;;;;;;;11.75;10.05;;;;;;;;;;5080389;28;20396;-88
2023/07/29 03:42:18;;;;;;;13.95;9.95;;;;;;;;;;5097503;28;20043;-89
2023/07/29 03:44:44;;;;;;;13.38;9.80;;;;;;;;;;5073555;28;20137;-89
2023/07/29 03:47:10;;;;;;;15.90;9.57;;;;;;;;;;5055809;28;20106;-89
2023/07/29 03:49:37;;;;;;;14.57;9.60;;;;;;;;;;5055399;28;20447;-89
2023/07/29 03:52:03;;;;;;;13.05;9.43;;;;;;;;;;5056610;28;20080;-88
2023/07/29 03:54:29;;;;;;;13.32;9.25;;;;;;;;;;5056336;28;20045;-88
2023/07/29 03:56:55;;;;;;;12.18;8.73;;;;;;;;;;5056474;28;20044;-88
2023/07/29 03:59:22;;;;;;;12.52;9.63;;;;;;;;;;5056504;28;20444;-89
2023/07/29 04:01:49;;;;;;;12.80;9.57;;;;;;;;;;5073203;28;20051;-88
2023/07/29 04:04:15;;;;;;;12.32;8.65;;;;;;;;;;5058566;28;20040;-88
2023/07/29 04:06:41;;;;;;;12.02;8.10;;;;;;;;;;5056996;28;20036;-88
2023/07/29 04:09:07;;;;;;;11.25;8.30;;;;;;;;;;5073721;28;20045;-89
2023/07/29 04:11:34;;;;;;;13.82;9.10;;;;;;;;;;5072856;28;20047;-89
2023/07/29 04:14:00;;;;;;;13.57;9.68;;;;;;;;;;5056421;28;20086;-88
2023/07/29 04:16:26;;;;;;;12.38;8.60;;;;;;;;;;5056389;28;20045;-89
2023/07/29 04:18:52;;;;;;;11.43;8.57;;;;;;;;;;5055828;28;20095;-86
2023/07/29 04:21:18;;;;;;;13.25;8.50;;;;;;;;;;5073742;28;20064;-88
2023/07/29 04:23:44;;;;;;;11.60;8.52;;;;;;;;;;5060111;28;20032;-87
2023/07/29 04:26:10;;;;;;;12.10;8.35;;;;;;;;;;5059016;28;20094;-88
2023/07/29 04:28:36;;;;;;;10.80;8.07;;;;;;;;;;5059371;28;20051;-88
2023/07/29 04:31:02;;;;;;;11.57;7.53;;;;;;;;;;5058169;28;20079;-86
2023/07/29 04:33:30;;;;;;;10.57;7.57;;;;;;;;;;5076524;28;20052;-87
2023/07/29 04:35:56;;;;;;;10.77;8.20;;;;;;;;;;5075938;28;20032;-87
2023/07/29 04:38:22;;;;;;;12.93;8.00;;;;;;;;;;5076504;28;20044;-88
2023/07/29 04:40:51;;;;;;;10.88;7.18;;;;;;;;;;5058768;28;20140;-88
2023/07/29 04:43:17;;;;;;;10.75;7.38;;;;;;;;;;5059074;28;20059;-88
2023/07/29 04:45:46;;;;;;;10.43;7.13;;;;;;;;;;5057834;28;20103;-87
2023/07/29 04:48:12;;;;;;;10.52;6.90;;;;;;;;;;5076050;28;20472;-88
2023/07/29 04:50:38;;;;;;;10.77;6.07;;;;;;;;;;5059236;28;20448;-87
2023/07/29 04:53:05;;;;;;;12.48;6.50;;;;;;;;;;5076059;28;20143;-88
2023/07/29 04:55:31;;;;;;;7.45;6.10;;;;;;;;;;5059009;28;20201;-88
2023/07/29 04:57:57;;;;;;;9.73;5.85;;;;;;;;;;5076169;28;20079;-88
2023/07/29 05:00:23;;;;;;;9.30;5.55;;;;;;;;;;5076099;28;20044;-89
2023/07/29 05:02:49;;;;;;;8.10;5.47;;;;;;;;;;5075754;28;20370;-89
2023/07/29 05:05:15;;;;;;;9.82;5.32;;;;;;;;;;5075166;28;20056;-89
2023/07/29 05:07:41;;;;;;;11.52;5.13;;;;;;;;;;5075960;28;20503;-86
2023/07/29 05:10:07;;;;;;;9.18;5.20;;;;;;;;;;5066612;28;20051;-87
2023/07/29 05:12:34;;;;;;;8.57;4.90;;;;;;;;;;5095238;28;20040;-87
2023/07/29 05:15:00;;;;;;;7.75;4.82;;;;;;;;;;5078787;28;20085;-87
2023/07/29 05:17:26;;;;;;;7.65;4.63;;;;;;;;;;5079148;28;20088;-88
2023/07/29 05:19:52;;;;;;;8.07;4.68;;;;;;;;;;5077929;28;20459;-87
2023/07/29 05:22:19;;;;;;;8.18;4.65;;;;;;;;;;5095797;28;20047;-87
2023/07/29 05:24:45;;;;;;;7.63;4.10;;;;;;;;;;5078600;28;20051;-87
2023/07/29 05:27:11;;;;;;;7.80;4.40;;;;;;;;;;5064083;28;20041;-88
2023/07/29 05:29:37;;;;;;;6.97;3.83;;;;;;;;;;5058701;28;20193;-88
2023/07/29 05:32:03;;;;;;;10.35;3.90;;;;;;;;;;5075197;28;20471;-88
2023/07/29 05:34:29;;;;;;;7.22;3.80;;;;;;;;;;5058555;28;20045;-88
2023/07/29 05:36:55;;;;;;;8.00;4.15;;;;;;;;;;5058423;28;20047;-88
2023/07/29 05:39:21;;;;;;;8.13;3.70;;;;;;;;;;5058931;28;20091;-88
2023/07/29 05:41:48;;;;;;;7.38;4.10;;;;;;;;;;5058411;28;20157;-88
2023/07/29 05:44:14;;;;;;;6.05;3.72;;;;;;;;;;5075672;28;20047;-88
2023/07/29 05:46:40;;;;;;;6.47;3.38;;;;;;;;;;5079878;28;20052;-87
2023/07/29 05:49:06;;;;;;;5.28;3.53;;;;;;;;;;5071466;28;20044;-87
2023/07/29 05:51:32;;;;;;;8.55;3.80;;;;;;;;;;5077535;28;20400;-88
2023/07/29 05:53:59;;;;;;;6.38;3.63;;;;;;;;;;5057601;28;20044;-88
2023/07/29 05:56:25;;;;;;;7.00;3.90;;;;;;;;;;5058654;28;20098;-87
2023/07/29 05:58:51;;;;;;;9.15;4.30;;;;;;;;;;5074626;28;20129;-87
2023/07/29 06:01:17;;;;;;;8.45;4.03;;;;;;;;;;5057342;28;20395;-88
2023/07/29 06:03:43;;;;;;;7.80;4.13;;;;;;;;;;5052153;28;20041;-87
2023/07/29 06:06:11;;;;;;;8.57;4.50;;;;;;;;;;5066563;28;20040;-88
2023/07/29 06:08:37;;;;;;;7.55;4.10;;;;;;;;;;5074089;28;20079;-87
2023/07/29 06:11:06;;;;;;;7.45;4.00;;;;;;;;;;5057589;28;20044;-87
2023/07/29 06:13:32;;;;;;;6.68;4.00;;;;;;;;;;5057774;28;20055;-88
2023/07/29 06:15:58;;;;;;;9.80;3.95;;;;;;;;;;5057090;28;20041;-88
2023/07/29 06:18:25;;;;;;;10.30;3.95;;;;;;;;;;5058008;28;20233;-88
2023/07/29 06:20:51;;;;;;;9.65;4.07;;;;;;;;;;5060292;28;20135;-88
2023/07/29 06:23:18;;;;;;;6.80;4.20;;;;;;;;;;5061955;28;20045;-77
2023/07/29 06:25:44;;;;;;;7.32;3.90;;;;;;;;;;5071148;28;20109;-76
2023/07/29 06:28:10;;;;;;;7.90;4.30;;;;;;;;;;5075130;28;20443;-76
2023/07/29 06:30:36;;;;;;;8.68;3.90;;;;;;;;;;5079815;28;20048;-73
2023/07/29 06:33:03;;;;;;;6.53;3.58;;;;;;;;;;5081508;28;20094;-78
2023/07/29 06:35:29;;;;;;;10.48;3.63;;;;;;;;;;5072277;28;20147;-79
2023/07/29 06:37:55;;;;;;;9.23;3.88;;;;;;;;;;5073342;28;20038;-78
2023/07/29 06:40:21;;;;;;;7.80;3.92;;;;;;;;;;5069214;28;20043;-78
2023/07/29 06:42:47;;;;;;;7.43;4.10;;;;;;;;;;5073505;28;20041;-78
2023/07/29 06:45:15;;;;;;;8.10;3.95;;;;;;;;;;5080036;28;20135;-78
2023/07/29 06:47:41;;;;;;;7.65;3.97;;;;;;;;;;5093569;28;20048;-78
2023/07/29 06:50:08;;;;;;;7.65;4.07;;;;;;;;;;5074771;28;20044;-77
2023/07/29 06:52:34;;;;;;;7.63;4.05;;;;;;;;;;5093465;28;20048;-78
2023/07/29 06:55:00;;;;;;;6.85;3.85;;;;;;;;;;5092645;28;20040;-79
2023/07/29 06:57:26;;;;;;;11.77;4.07;;;;;;;;;;5093381;28;20063;-78
2023/07/29 06:59:52;;;;;;;7.60;3.90;;;;;;;;;;5058382;28;20056;-78
2023/07/29 07:02:19;;;;;;;8.70;3.53;;;;;;;;;;5093485;28;20435;-79
2023/07/29 07:04:45;;;;;;;9.27;3.90;;;;;;;;;;5074367;28;20040;-79
2023/07/29 07:07:11;;;;;;;7.45;3.88;;;;;;;;;;5093470;28;20133;-79
2023/07/29 07:09:37;;;;;;;11.63;4.13;;;;;;;;;;5092701;28;20044;-79
2023/07/29 07:12:04;;;;;;;8.88;4.00;;;;;;;;;;5113868;28;20036;-78
2023/07/29 07:14:30;;;;;;;11.35;4.45;;;;;;;;;;5106189;28;20108;-79
2023/07/29 07:16:56;;;;;;;9.15;4.30;;;;;;;;;;5093180;28;20067;-80
2023/07/29 07:19:22;;;;;;;10.02;4.25;;;;;;;;;;5092805;28;20464;-80
2023/07/29 07:21:48;;;;;;;8.15;3.95;;;;;;;;;;5093400;28;20116;-78
2023/07/29 07:24:14;;;;;;;11.93;4.65;;;;;;;;;;5076149;28;20079;-80
2023/07/29 07:26:40;;;;;;;10.48;4.63;;;;;;;;;;5092425;28;20473;-79
2023/07/29 07:29:06;;;;;;;10.48;4.05;;;;;;;;;;5092194;28;20047;-79
2023/07/29 07:31:36;;;;;;;7.47;4.10;;;;;;;;;;5093204;28;20040;-79
2023/07/29 07:34:02;;;;;;;10.45;4.38;;;;;;;;;;5067031;28;20048;-80
2023/07/29 07:36:30;;;;;;;9.70;4.28;;;;;;;;;;5086366;28;20036;-79
2023/07/29 07:38:56;;;;;;;11.25;4.45;;;;;;;;;;5070667;28;20076;-80
2023/07/29 07:41:22;;;;;;;11.48;4.30;;;;;;;;;;5054128;28;20040;-79
2023/07/29 07:43:48;;;;;;;11.23;4.70;;;;;;;;;;5070756;28;20041;-80
2023/07/29 07:46:14;;;;;;;8.32;4.20;;;;;;;;;;5071887;28;20069;-80
2023/07/29 07:48:40;;;;;;;10.63;4.43;;;;;;;;;;5054405;28;20048;-79
2023/07/29 07:51:13;;;;;;;7.90;4.05;;;;;;;;;;5072335;28;20044;-79
2023/07/29 07:53:40;;;;;;;9.80;3.97;;;;;;;;;;5090873;28;20044;-79
2023/07/29 07:56:06;;;;;;;9.95;3.72;;;;;;;;;;5090459;28;20076;-79
2023/07/29 07:58:32;;;;;;;7.07;3.70;;;;;;;;;;5096215;28;20392;-79
2023/07/29 08:01:02;;;;;;;9.27;4.45;;;;;;;;;;5095836;28;20040;-79
2023/07/29 08:03:29;;;;;;;10.77;4.15;;;;;;;;;;5095935;28;20131;-77
2023/07/29 08:05:55;;;;;;;12.13;4.38;;;;;;;;;;5094427;28;20052;-77
2023/07/29 08:08:21;;;;;;;6.75;3.95;;;;;;;;;;5096307;28;20085;-77
2023/07/29 08:10:47;;;;;;;10.95;4.57;;;;;;;;;;5095479;28;20131;-77
2023/07/29 08:13:13;;;;;;;10.95;4.50;;;;;;;;;;5078752;28;20107;-77
2023/07/29 08:15:40;;;;;;;9.98;4.40;;;;;;;;;;5077217;28;20036;-77
2023/07/29 08:18:07;;;;;;;7.32;4.22;;;;;;;;;;5095235;28;20043;-77
2023/07/29 08:20:33;;;;;;;8.38;3.30;;;;;;;;;;5095212;28;20050;-77
2023/07/29 08:22:59;;;;;;;10.80;4.60;;;;;;;;;;5094857;28;20507;-76
2023/07/29 08:25:25;;;;;;;8.10;3.78;;;;;;;;;;5076780;28;20048;-78
2023/07/29 08:27:51;;;;;;;9.85;4.30;;;;;;;;;;5112176;28;20081;-78
2023/07/29 08:30:18;;;;;;;8.05;3.33;;;;;;;;;;5113084;28;20048;-78
2023/07/29 08:32:44;;;;;;;6.63;3.25;;;;;;;;;;5096123;28;20054;-79
2023/07/29 08:35:11;;;;;;;9.30;3.45;;;;;;;;;;5095399;28;20063;-78
2023/07/29 08:37:37;;;;;;;10.43;3.38;;;;;;;;;;5096562;28;20055;-78
2023/07/29 08:40:03;;;;;;;6.90;3.10;;;;;;;;;;5076390;28;20138;-78
2023/07/29 08:42:31;;;;;;;6.97;2.70;;;;;;;;;;5110918;28;20070;-77
2023/07/29 08:45:03;;;;;;;5.38;2.80;;;;;;;;;;5113287;28;20048;-79
2023/07/29 08:47:30;;;;;;;9.68;3.10;;;;;;;;;;5095556;28;20048;-79
2023/07/29 08:49:57;;;;;;;10.68;3.15;;;;;;;;;;5077052;28;20052;-78
2023/07/29 08:52:24;;;;;;;8.57;3.10;;;;;;;;;;5095488;28;20366;-77
2023/07/29 08:54:50;;;;;;;6.43;2.85;;;;;;;;;;5076215;28;20074;-78
2023/07/29 08:57:16;;;;;;;7.18;3.08;;;;;;;;;;5076463;28;20172;-76
2023/07/29 08:59:43;;;;;;;9.68;2.90;;;;;;;;;;5076068;28;20121;-76
2023/07/29 09:02:09;;;;;;;5.95;2.67;;;;;;;;;;5094729;28;20062;-76
2023/07/29 09:04:35;;;;;;;5.18;2.47;;;;;;;;;;5093748;28;20040;-76
2023/07/29 09:07:01;;;;;;;5.50;2.42;;;;;;;;;;5094578;28;20508;-76
2023/07/29 09:09:28;;;;;;;6.15;2.22;;;;;;;;;;5094198;28;20052;-75
2023/07/29 09:11:54;;;;;;;5.75;2.30;;;;;;;;;;5094875;28;20075;-76
2023/07/29 09:14:20;;;;;;;4.50;2.20;;;;;;;;;;5094050;28;20427;-76
2023/07/29 09:16:46;;;;;;;8.45;2.60;;;;;;;;;;5074951;28;20040;-76
2023/07/29 09:19:13;;;;;;;6.97;2.30;;;;;;;;;;5076224;28;20086;-75
2023/07/29 09:21:40;;;;;;;6.95;2.40;;;;;;;;;;5094237;28;20036;-77
2023/07/29 09:24:07;;;;;;;5.32;2.25;;;;;;;;;;5094316;28;20055;-75
2023/07/29 09:26:33;;;;;;;5.28;2.20;;;;;;;;;;5094179;28;20052;-76
2023/07/29 09:29:00;;;;;;;8.32;2.45;;;;;;;;;;5058942;28;20052;-76
2023/07/29 09:31:27;;;;;;;4.85;2.13;;;;;;;;;;5093839;28;20157;-76
2023/07/29 09:34:03;;;;;;;7.10;2.30;;;;;;;;;;5076015;28;20090;-76
2023/07/29 09:36:33;;;;;;;5.18;2.10;;;;;;;;;;5093775;28;20055;-76
2023/07/29 09:38:59;;;;;;;4.85;2.00;;;;;;;;;;5094162;28;20744;-76
2023/07/29 09:41:32;;;;;;;6.03;2.15;;;;;;;;;;5075189;28;20051;-76
2023/07/29 09:44:03;;;;;;;5.18;2.08;;;;;;;;;;5092741;28;20459;-76
2023/07/29 09:46:33;;;;;;;6.45;1.98;;;;;;;;;;5093377;28;20143;-75
2023/07/29 09:48:59;;;;;;;4.93;2.03;;;;;;;;;;5094052;28;20134;-76
2023/07/29 09:51:26;;;;;;;8.13;2.38;;;;;;;;;;5058892;28;20093;-75
2023/07/29 09:53:52;;;;;;;4.32;1.75;;;;;;;;;;5059298;28;20410;-76
2023/07/29 09:56:18;;;;;;;4.82;1.70;;;;;;;;;;5092816;28;20036;-76
2023/07/29 09:58:45;;;;;;;4.22;1.80;;;;;;;;;;5074069;28;20205;-76
2023/07/29 10:01:12;;;;;;;5.45;1.90;;;;;;;;;;5099259;28;20040;-74
2023/07/29 10:03:38;;;;;;;3.30;1.50;;;;;;;;;;5081130;28;20109;-73
2023/07/29 10:06:05;;;;;;;4.47;1.70;;;;;;;;;;5100336;28;20044;-73
2023/07/29 10:08:32;;;;;;;4.55;1.80;;;;;;;;;;5097656;28;20047;-73
2023/07/29 10:11:01;;;;;;;5.07;1.80;;;;;;;;;;5098174;28;20044;-74
2023/07/29 10:13:28;;;;;;;4.20;1.90;;;;;;;;;;5092178;28;20032;-74
2023/07/29 10:15:58;;;;;;;5.00;1.90;;;;;;;;;;5088325;28;20127;-75
2023/07/29 10:18:24;;;;;;;6.28;1.92;;;;;;;;;;5089071;28;20044;-74
2023/07/29 10:20:51;;;;;;;6.03;2.00;;;;;;;;;;5074088;28;20189;-74
2023/07/29 10:23:18;;;;;;;5.38;2.00;;;;;;;;;;5091891;28;20036;-74
2023/07/29 10:25:50;;;;;;;4.85;1.60;;;;;;;;;;5092647;28;20051;-75
2023/07/29 10:28:18;;;;;;;5.68;1.80;;;;;;;;;;5074227;28;20214;-75
2023/07/29 10:30:44;;;;;;;5.53;1.70;;;;;;;;;;5103068;28;20146;-75
2023/07/29 10:33:11;;;;;;;5.47;2.10;;;;;;;;;;5093295;28;20048;-75
2023/07/29 10:35:37;;;;;;;4.28;1.65;;;;;;;;;;5091440;28;20040;-74
2023/07/29 10:38:04;;;;;;;8.77;1.92;;;;;;;;;;5074707;28;20051;-74
2023/07/29 10:40:51;;;;;;;4.05;1.90;;;;;;;;;;5074213;28;20527;-75
2023/07/29 10:43:25;;;;;;;4.00;1.70;;;;;;;;;;5092197;28;20040;-75
2023/07/29 10:45:51;;;;;;;5.70;1.60;;;;;;;;;;5092330;28;20075;-74
2023/07/29 10:48:33;;;;;;;6.03;1.70;;;;;;;;;;5092689;28;20056;-75
2023/07/29 10:51:17;;;;;;;4.43;1.50;;;;;;;;;;5092444;28;20116;-75
2023/07/29 10:53:44;;;;;;;3.33;1.65;;;;;;;;;;5091941;28;20047;-75
2023/07/29 10:56:10;;;;;;;3.88;1.77;;;;;;;;;;5091719;28;20051;-75
2023/07/29 10:58:36;;;;;;;4.30;1.70;;;;;;;;;;5092559;28;20118;-74
2023/07/29 11:01:13;;;;;;;5.97;1.60;;;;;;;;;;5073901;28;20047;-76
2023/07/29 11:03:39;;;;;;;3.97;1.90;;;;;;;;;;5089469;28;20048;-75
2023/07/29 11:06:05;;;;;;;3.88;1.70;;;;;;;;;;5080030;28;20039;-75
2023/07/29 11:08:33;;;;;;;4.22;1.80;;;;;;;;;;5091414;28;20066;-74
2023/07/29 11:11:07;;;;;;;6.03;1.70;;;;;;;;;;5090324;28;20396;-74
2023/07/29 11:13:34;;;;;;;4.93;2.08;;;;;;;;;;5092519;28;20040;-74
2023/07/29 11:16:01;;;;;;;4.25;1.80;;;;;;;;;;5073953;28;20369;-74
2023/07/29 11:18:29;;;;;;;5.25;1.60;;;;;;;;;;5089858;28;20036;-74
2023/07/29 11:20:56;;;;;;;4.50;1.70;;;;;;;;;;5090694;28;20123;-74
2023/07/29 11:23:28;;;;;;;3.90;1.70;;;;;;;;;;5072355;28;20510;-74
2023/07/29 11:25:54;;;;;;;4.40;1.60;;;;;;;;;;5094302;28;20044;-74
2023/07/29 11:28:21;;;;;;;4.05;1.40;;;;;;;;;;5092001;28;20040;-74
2023/07/29 11:30:48;;;;;;;4.75;1.75;;;;;;;;;;5094223;28;20055;-74
2023/07/29 11:33:14;;;;;;;4.82;1.83;;;;;;;;;;5095450;28;20127;-74
2023/07/29 11:35:40;;;;;;;5.10;1.80;;;;;;;;;;5095543;28;20040;-75
2023/07/29 11:38:06;;;;;;;5.45;1.70;;;;;;;;;;5094429;28;20476;-74
2023/07/29 11:40:32;;;;;;;3.88;1.70;;;;;;;;;;5074277;28;20113;-74
2023/07/29 11:42:58;;;;;;;5.10;1.75;;;;;;;;;;5084788;28;20147;-74
2023/07/29 11:45:25;;;;;;;5.65;1.90;;;;;;;;;;5094921;28;20051;-74
2023/07/29 11:47:52;;;;;;;4.00;1.67;;;;;;;;;;5093011;28;20036;-74
2023/07/29 11:50:18;;;;;;;6.55;2.00;;;;;;;;;;5093428;28;20562;-74
2023/07/29 11:52:45;;;;;;;3.83;1.85;;;;;;;;;;5093677;28;20120;-74
2023/07/29 11:55:12;;;;;;;4.88;2.00;;;;;;;;;;5093970;28;20051;-74
2023/07/29 11:57:39;;;;;;;5.30;2.03;;;;;;;;;;5077824;28;20044;-75
2023/07/29 12:00:06;;;;;;;7.25;2.10;;;;;;;;;;5057818;28;20036;-75
2023/07/29 12:02:33;;;;;;;4.88;2.10;;;;;;;;;;5095444;28;20408;-74
2023/07/29 12:04:59;;;;;;;4.90;2.00;;;;;;;;;;5094088;28;20043;-75
2023/07/29 12:07:26;;;;;;;6.53;2.05;;;;;;;;;;5076785;28;20663;-75
2023/07/29 12:09:52;;;;;;;3.60;1.90;;;;;;;;;;5094361;28;20047;-74
2023/07/29 12:12:18;;;;;;;5.47;2.40;;;;;;;;;;5094242;28;20123;-75
2023/07/29 12:14:46;;;;;;;6.55;2.28;;;;;;;;;;5092823;28;20051;-75
2023/07/29 12:17:12;;;;;;;5.60;2.00;;;;;;;;;;5075460;28;20082;-75
2023/07/29 12:19:40;;;;;;;7.10;2.40;;;;;;;;;;5093290;28;20047;-75
2023/07/29 12:22:07;;;;;;;5.22;2.30;;;;;;;;;;5093026;28;20094;-75
2023/07/29 12:24:34;;;;;;;5.80;2.30;;;;;;;;;;5093915;28;20048;-74
2023/07/29 12:27:00;;;;;;;8.02;2.70;;;;;;;;;;5094433;28;22040;-74
2023/07/29 12:29:27;;;;;;;4.93;2.15;;;;;;;;;;5083286;28;20077;-73
2023/07/29 12:32:02;;;;;;;4.80;2.00;;;;;;;;;;5102960;28;20044;-74
2023/07/29 12:34:29;;;;;;;5.90;2.20;;;;;;;;;;5092208;28;20052;-74
2023/07/29 12:36:56;;;;;;;5.78;2.10;;;;;;;;;;5095158;28;20048;-74
2023/07/29 12:39:23;;;;;;;4.10;1.92;;;;;;;;;;5058927;28;20054;-74
2023/07/29 12:41:50;;;;;;;4.60;2.28;;;;;;;;;;5092222;28;20131;-74
2023/07/29 12:44:16;;;;;;;6.43;2.20;;;;;;;;;;5094700;28;20040;-74
2023/07/29 12:46:42;;;;;;;8.23;2.30;;;;;;;;;;5093624;28;20545;-77
2023/07/29 12:49:09;;;;;;;5.50;2.28;;;;;;;;;;5098008;28;20140;-75
2023/07/29 12:51:35;;;;;;;5.13;2.30;;;;;;;;;;5094635;28;20067;-75
2023/07/29 12:54:03;;;;;;;3.90;1.85;;;;;;;;;;5094849;28;20439;-74
2023/07/29 12:56:30;;;;;;;6.95;2.28;;;;;;;;;;5090579;28;20066;-75
2023/07/29 12:58:57;;;;;;;5.00;2.10;;;;;;;;;;5106305;28;20058;-75
2023/07/29 13:01:23;;;;;;;5.90;2.30;;;;;;;;;;5114794;28;20043;-75
2023/07/29 13:03:50;;;;;;;4.65;1.90;;;;;;;;;;5090820;28;20051;-76
2023/07/29 13:06:16;;;;;;;4.75;2.03;;;;;;;;;;5074193;28;20044;-76
2023/07/29 13:08:42;;;;;;;4.50;2.00;;;;;;;;;;5085384;28;20048;-75
2023/07/29 13:11:09;;;;;;;4.00;1.70;;;;;;;;;;5056619;28;20504;-75
2023/07/29 13:13:35;;;;;;;5.32;1.88;;;;;;;;;;5073596;28;20185;-74
2023/07/29 13:16:01;;;;;;;4.68;2.20;;;;;;;;;;5073335;28;20420;-75
2023/07/29 13:18:27;;;;;;;5.75;1.95;;;;;;;;;;5075880;28;20485;-75
2023/07/29 13:20:54;;;;;;;4.10;1.90;;;;;;;;;;5093496;28;20036;-75
2023/07/29 13:23:20;;;;;;;5.53;1.83;;;;;;;;;;5093884;28;20127;-75
2023/07/29 13:25:46;;;;;;;4.97;1.90;;;;;;;;;;5093020;28;20133;-76
2023/07/29 13:28:15;;;;;;;6.45;2.00;;;;;;;;;;5090446;28;20068;-76
2023/07/29 13:30:41;;;;;;;3.42;1.98;;;;;;;;;;5086479;28;20079;-77
2023/07/29 13:33:08;;;;;;;5.00;2.15;;;;;;;;;;5092236;28;20040;-76
2023/07/29 13:35:34;;;;;;;4.57;1.80;;;;;;;;;;5073359;28;20056;-76
2023/07/29 13:38:03;;;;;;;5.95;2.10;;;;;;;;;;5091184;28;20484;-75
2023/07/29 13:40:30;;;;;;;6.40;2.15;;;;;;;;;;5081312;28;20103;-74
2023/07/29 13:42:56;;;;;;;6.43;1.88;;;;;;;;;;5120399;28;20068;-74
2023/07/29 13:45:22;;;;;;;4.68;2.47;;;;;;;;;;5106700;28;20043;-74
2023/07/29 13:47:51;;;;;;;5.57;2.10;;;;;;;;;;5109701;28;20488;-75
2023/07/29 13:50:18;;;;;;;4.85;1.85;;;;;;;;;;5092122;28;20078;-76
2023/07/29 13:52:44;;;;;;;5.15;1.90;;;;;;;;;;5094087;28;20048;-75
2023/07/29 13:55:11;;;;;;;5.13;2.00;;;;;;;;;;5093472;28;20052;-76
2023/07/29 13:57:38;;;;;;;5.07;1.90;;;;;;;;;;5093995;28;20048;-74
2023/07/29 14:00:07;;;;;;;6.60;2.33;;;;;;;;;;5093382;28;20075;-73
2023/07/29 14:02:33;;;;;;;4.75;2.08;;;;;;;;;;5075323;28;20076;-75
2023/07/29 14:04:59;;;;;;;5.45;2.00;;;;;;;;;;5091232;28;20126;-75
2023/07/29 14:07:25;;;;;;;8.18;2.40;;;;;;;;;;5075170;28;20127;-76
2023/07/29 14:09:51;;;;;;;4.88;2.10;;;;;;;;;;5093311;28;20075;-76
2023/07/29 14:12:17;;;;;;;5.32;2.20;;;;;;;;;;5093340;28;20519;-75
2023/07/29 14:14:43;;;;;;;6.90;2.50;;;;;;;;;;5093093;28;20133;-75
2023/07/29 14:17:10;;;;;;;7.53;2.40;;;;;;;;;;5092418;28;20064;-75
2023/07/29 14:19:36;;;;;;;4.80;2.10;;;;;;;;;;5074866;28;20047;-75
2023/07/29 14:22:02;;;;;;;5.80;2.47;;;;;;;;;;5075330;28;20044;-75
2023/07/29 14:24:28;;;;;;;5.13;2.05;;;;;;;;;;5075054;28;20089;-76
2023/07/29 14:26:54;;;;;;;6.13;2.40;;;;;;;;;;5092910;28;20047;-76
2023/07/29 14:29:20;;;;;;;4.78;2.22;;;;;;;;;;5092563;28;20040;-74
2023/07/29 14:31:47;;;;;;;5.47;2.30;;;;;;;;;;5092314;28;20044;-74
2023/07/29 14:34:13;;;;;;;7.32;2.25;;;;;;;;;;5092765;28;20096;-76
2023/07/29 14:36:39;;;;;;;5.40;2.22;;;;;;;;;;5093151;28;20071;-75